Time;durP1;ratioP1;P1;durP2;ratioP2;P2;SDS_P1;SDS_P2;PMS_P1;PMS_P2;Temp;Humidity;BMP_temperature;BMP_pressure;BME280_temperature;BME280_humidity;BME280_pressure;Samples;Min_cycle;Max_cycle;Signal;HPM_P1;HPM_P2
2021/03/23 00:00:50;;;;;;;7.13;3.10;;;5.20;99.90;;;;;;5109955;28;20081;-80
2021/03/23 00:03:25;;;;;;;9.07;3.33;;;5.30;99.90;;;;;;5106744;28;20089;-80
2021/03/23 00:05:51;;;;;;;;;;;5.20;99.90;;;;;;5105950;28;20482;-80
2021/03/23 00:08:44;;;;;;;7.18;3.25;;;5.30;99.90;;;;;;5105441;28;19968;-80
2021/03/23 00:11:15;;;;;;;8.80;3.38;;;5.30;99.90;;;;;;5029006;28;20057;-79
2021/03/23 00:13:43;;;;;;;7.75;3.55;;;5.30;99.90;;;;;;5034685;28;20559;-80
2021/03/23 00:16:30;;;;;;;8.65;3.72;;;5.30;99.90;;;;;;5035569;28;20129;-80
2021/03/23 00:18:56;;;;;;;8.95;4.03;;;5.30;99.90;;;;;;5040484;28;20478;-80
2021/03/23 00:21:23;;;;;;;12.18;4.03;;;5.30;99.90;;;;;;5039187;28;20034;-80
2021/03/23 00:23:49;;;;;;;7.40;3.88;;;5.30;99.90;;;;;;5016981;28;20460;-81
2021/03/23 00:26:17;;;;;;;6.28;3.70;;;5.30;99.90;;;;;;5020033;28;20057;-80
2021/03/23 00:28:46;;;;;;;9.63;3.78;;;5.30;99.90;;;;;;5028595;28;20064;-80
2021/03/23 00:31:20;;;;;;;9.15;3.80;;;5.30;99.90;;;;;;5033615;28;20064;-80
2021/03/23 00:33:46;;;;;;;10.35;3.55;;;5.30;99.90;;;;;;5040835;28;20032;-81
2021/03/23 00:36:16;;;;;;;7.50;3.78;;;5.30;99.90;;;;;;5011281;28;20046;-81
2021/03/23 00:38:42;;;;;;;7.60;3.20;;;5.30;99.90;;;;;;5038567;28;20045;-79
2021/03/23 00:41:09;;;;;;;10.82;3.97;;;5.30;99.90;;;;;;5038751;28;20184;-80
2021/03/23 00:43:39;;;;;;;8.20;3.55;;;5.40;99.90;;;;;;5029962;28;20045;-79
2021/03/23 00:46:05;;;;;;;8.95;3.50;;;5.30;99.90;;;;;;5031672;28;20045;-81
2021/03/23 00:48:30;;;;;;;7.25;3.78;;;5.50;99.90;;;;;;5081036;28;20071;-79
2021/03/23 00:50:57;;;;;;;10.40;3.63;;;5.30;99.90;;;;;;5084653;28;20074;-80
2021/03/23 00:53:23;;;;;;;10.82;3.90;;;5.30;99.90;;;;;;5077705;28;20565;-80
2021/03/23 00:55:50;;;;;;;7.43;3.55;;;5.30;99.90;;;;;;5101581;28;20066;-81
2021/03/23 00:58:16;;;;;;;7.75;3.72;;;5.30;99.90;;;;;;5078780;28;20455;-81
2021/03/23 01:00:42;;;;;;;6.25;3.55;;;5.50;99.90;;;;;;5093882;28;20837;-80
2021/03/23 01:03:08;;;;;;;6.47;3.38;;;5.30;99.90;;;;;;5094395;28;20142;-80
2021/03/23 01:05:36;;;;;;;10.50;3.80;;;5.30;99.90;;;;;;5094477;28;20054;-82
2021/03/23 01:08:04;;;;;;;9.07;3.70;;;5.40;99.90;;;;;;5092605;28;20539;-82
2021/03/23 01:10:31;;;;;;;6.43;3.35;;;5.30;99.90;;;;;;5096050;28;20040;-82
2021/03/23 01:12:57;;;;;;;8.02;3.50;;;5.60;99.90;;;;;;5093564;27;20059;-82
2021/03/23 01:15:29;;;;;;;7.68;3.53;;;5.30;99.90;;;;;;5112199;28;20078;-82
2021/03/23 01:17:56;;;;;;;8.50;3.60;;;5.30;99.90;;;;;;5086203;28;20043;-81
2021/03/23 01:20:23;;;;;;;7.97;3.35;;;5.30;99.90;;;;;;5077933;28;20092;-82
2021/03/23 01:22:50;;;;;;;9.18;3.40;;;5.30;99.90;;;;;;5078378;28;20074;-82
2021/03/23 01:25:16;;;;;;;7.60;3.40;;;5.30;99.90;;;;;;5072573;28;20055;-81
2021/03/23 01:27:42;;;;;;;8.15;3.65;;;5.40;99.90;;;;;;5065070;28;20052;-82
2021/03/23 01:30:09;;;;;;;6.03;3.47;;;5.60;99.90;;;;;;5107426;27;20142;-83
2021/03/23 01:32:35;;;;;;;8.50;3.65;;;5.30;99.90;;;;;;5094995;28;20027;-82
2021/03/23 01:35:01;;;;;;;7.97;3.47;;;5.30;99.90;;;;;;5090103;28;20035;-81
2021/03/23 01:37:27;;;;;;;9.00;4.25;;;5.30;99.90;;;;;;5071170;28;20122;-82
2021/03/23 01:39:53;;;;;;;8.20;3.85;;;5.50;99.90;;;;;;5088206;28;20035;-82
2021/03/23 01:42:20;;;;;;;11.25;4.22;;;5.30;99.90;;;;;;5083006;28;20467;-82
2021/03/23 01:45:12;;;;;;;10.85;4.30;;;5.20;99.90;;;;;;5090455;28;20071;-81
2021/03/23 01:47:38;;;;;;;8.38;4.18;;;5.20;99.90;;;;;;5107478;28;20028;-81
2021/03/23 01:50:04;;;;;;;11.02;4.75;;;5.20;99.90;;;;;;5082341;28;20131;-81
2021/03/23 01:52:31;;;;;;;13.50;5.57;;;5.20;99.90;;;;;;5082893;28;20539;-81
2021/03/23 01:55:03;;;;;;;10.48;5.30;;;5.20;99.90;;;;;;5107251;27;20043;-83
2021/03/23 01:57:32;;;;;;;12.73;5.70;;;5.10;99.90;;;;;;5106611;27;20052;-82
2021/03/23 01:59:59;;;;;;;10.55;5.72;;;5.00;99.90;;;;;;5082131;28;20047;-81
2021/03/23 02:02:27;;;;;;;12.13;6.75;;;4.90;99.90;;;;;;5086621;28;20042;-81
2021/03/23 02:04:53;;;;;;;13.18;5.90;;;4.90;99.90;;;;;;5086740;28;20032;-82
2021/03/23 02:07:20;;;;;;;13.50;5.57;;;4.80;99.90;;;;;;5088714;28;20027;-82
2021/03/23 02:09:46;;;;;;;11.20;5.95;;;4.90;99.90;;;;;;5090715;28;20054;-81
2021/03/23 02:12:16;;;;;;;11.38;5.90;;;4.70;99.90;;;;;;5075036;28;20139;-82
2021/03/23 02:14:46;;;;;;;16.25;6.10;;;4.70;99.90;;;;;;5089225;28;20481;-81
2021/03/23 02:17:21;;;;;;;8.63;5.70;;;4.60;99.90;;;;;;5110428;28;20052;-82
2021/03/23 02:19:48;;;;;;;15.02;6.35;;;4.50;99.90;;;;;;5093210;28;20039;-81
2021/03/23 02:22:30;;;;;;;12.65;6.38;;;4.50;99.90;;;;;;5079222;28;20094;-81
2021/03/23 02:24:57;;;;;;;10.38;5.72;;;4.40;99.90;;;;;;5086505;28;20055;-81
2021/03/23 02:27:24;;;;;;;10.45;6.53;;;4.40;99.90;;;;;;5108221;27;20494;-81
2021/03/23 02:29:52;;;;;;;13.90;6.10;;;4.40;99.90;;;;;;5091244;28;20028;-82
2021/03/23 02:32:18;;;;;;;15.40;6.32;;;4.50;99.90;;;;;;5093656;28;20126;-82
2021/03/23 02:34:44;;;;;;;13.23;5.85;;;4.30;99.90;;;;;;5085666;28;20040;-82
2021/03/23 02:37:17;;;;;;;14.18;6.05;;;4.20;99.90;;;;;;5109236;27;20066;-82
2021/03/23 02:39:43;;;;;;;13.43;6.32;;;4.50;99.90;;;;;;5114726;27;20027;-82
2021/03/23 02:42:10;;;;;;;18.42;6.70;;;4.50;99.90;;;;;;5095163;28;20032;-82
2021/03/23 02:44:39;;;;;;;19.42;6.72;;;4.30;99.90;;;;;;5086305;28;20040;-82
2021/03/23 02:47:05;;;;;;;10.95;5.80;;;4.40;99.90;;;;;;5081611;28;20043;-82
2021/03/23 02:49:32;;;;;;;10.93;5.63;;;4.30;99.90;;;;;;5102670;28;20031;-82
2021/03/23 02:51:58;;;;;;;12.73;6.35;;;4.40;99.90;;;;;;5079034;28;20071;-83
2021/03/23 02:54:24;;;;;;;11.75;6.07;;;4.30;99.90;;;;;;5092905;28;20379;-82
2021/03/23 02:56:50;;;;;;;10.82;6.22;;;4.40;99.90;;;;;;5100512;28;20042;-82
2021/03/23 02:59:16;;;;;;;10.90;6.50;;;4.40;99.90;;;;;;5097569;28;20047;-81
2021/03/23 03:01:41;;;;;;;11.13;6.28;;;4.50;99.90;;;;;;5131394;27;20491;-81
2021/03/23 03:04:07;;;;;;;11.40;6.22;;;4.50;99.90;;;;;;5105388;28;20043;-82
2021/03/23 03:06:33;;;;;;;12.50;6.85;;;4.50;99.90;;;;;;5107125;28;20055;-82
2021/03/23 03:08:59;;;;;;;12.10;6.75;;;4.60;99.90;;;;;;5100238;28;20054;-81
2021/03/23 03:11:24;;;;;;;15.07;6.75;;;4.60;99.90;;;;;;5103226;28;20466;-82
2021/03/23 03:13:50;;;;;;;13.98;7.00;;;4.70;99.90;;;;;;5099002;28;20051;-82
2021/03/23 03:16:17;;;;;;;16.98;7.47;;;4.70;99.90;;;;;;5111648;28;20036;-81
2021/03/23 03:19:02;;;;;;;16.77;7.63;;;4.70;99.90;;;;;;5119568;28;20243;-82
2021/03/23 03:21:27;;;;;;;14.95;8.02;;;4.80;99.90;;;;;;5097401;28;20073;-81
2021/03/23 03:23:53;;;;;;;20.27;8.40;;;4.80;99.90;;;;;;5095520;28;20039;-81
2021/03/23 03:26:20;;;;;;;18.25;8.18;;;5.20;99.90;;;;;;5110874;28;20382;-82
2021/03/23 03:28:52;;;;;;;14.15;7.70;;;4.80;99.90;;;;;;5092064;28;20115;-81
2021/03/23 03:31:23;;;;;;;15.85;8.30;;;4.80;99.90;;;;;;5110951;28;20054;-82
2021/03/23 03:33:50;;;;;;;15.13;8.02;;;5.10;99.90;;;;;;5088850;28;20119;-82
2021/03/23 03:36:18;;;;;;;20.08;8.90;;;5.10;99.90;;;;;;5103302;28;20047;-82
2021/03/23 03:38:44;;;;;;;17.05;8.75;;;4.90;99.90;;;;;;5090446;28;20119;-82
2021/03/23 03:41:10;;;;;;;16.92;8.68;;;5.00;99.90;;;;;;5090166;28;20522;-81
2021/03/23 03:43:36;;;;;;;23.08;8.55;;;4.90;99.90;;;;;;5081764;28;20054;-82
2021/03/23 03:46:02;;;;;;;18.40;8.85;;;5.00;99.90;;;;;;5110547;28;20040;-83
2021/03/23 03:48:29;;;;;;;16.45;9.05;;;5.10;99.90;;;;;;5100021;28;20344;-83
2021/03/23 03:50:55;;;;;;;16.48;9.32;;;4.90;99.90;;;;;;5108229;28;20394;-83
2021/03/23 03:53:21;;;;;;;17.85;9.55;;;5.20;99.90;;;;;;5087323;28;20034;-82
2021/03/23 03:55:48;;;;;;;20.48;9.73;;;5.00;99.90;;;;;;5089711;28;20067;-82
2021/03/23 03:58:15;;;;;;;18.13;9.63;;;5.20;99.90;;;;;;5070475;28;20039;-81
2021/03/23 04:00:41;;;;;;;19.13;10.18;;;4.90;99.90;;;;;;5071016;28;20086;-80
2021/03/23 04:03:12;;;;;;;18.33;9.80;;;5.20;99.90;;;;;;5105246;28;20382;-82
2021/03/23 04:05:40;;;;;;;19.52;10.32;;;4.90;99.90;;;;;;5085044;28;20071;-82
2021/03/23 04:08:08;;;;;;;21.00;10.10;;;5.00;99.90;;;;;;5064729;28;20055;-82
2021/03/23 04:10:34;;;;;;;21.73;10.88;;;4.90;99.90;;;;;;5086742;28;20047;-82
2021/03/23 04:13:00;;;;;;;21.17;10.77;;;4.80;99.90;;;;;;5090095;28;20093;-83
2021/03/23 04:15:33;;;;;;;22.63;11.57;;;4.90;99.90;;;;;;5070918;28;20045;-82
2021/03/23 04:17:59;;;;;;;22.60;11.25;;;5.80;99.90;;;;;;5079490;28;20051;-82
2021/03/23 04:20:25;;;;;;;25.80;12.65;;;4.90;99.90;;;;;;5083234;28;20436;-83
2021/03/23 04:22:52;;;;;;;23.45;11.82;;;4.90;99.90;;;;;;5102711;28;20040;-83
2021/03/23 04:25:25;;;;;;;25.23;11.55;;;4.90;99.90;;;;;;5107576;28;20052;-82
2021/03/23 04:27:51;;;;;;;28.77;12.75;;;4.90;99.90;;;;;;5101937;28;20137;-81
2021/03/23 04:30:19;;;;;;;22.13;12.45;;;5.00;99.90;;;;;;5094195;28;20031;-83
2021/03/23 04:32:45;;;;;;;22.88;12.52;;;4.90;99.90;;;;;;5106436;28;20131;-81
2021/03/23 04:35:24;;;;;;;23.35;12.10;;;5.10;99.90;;;;;;5087794;28;20123;-83
2021/03/23 04:37:50;;;;;;;26.45;13.70;;;4.90;99.90;;;;;;5104640;28;20031;-83
2021/03/23 04:40:15;;;;;;;27.33;13.43;;;5.00;99.90;;;;;;5083651;28;20036;-82
2021/03/23 04:42:41;;;;;;;24.33;12.95;;;5.00;99.90;;;;;;5086936;28;20027;-83
2021/03/23 04:45:08;;;;;;;26.05;12.80;;;5.00;99.90;;;;;;5085446;28;20497;-81
2021/03/23 04:47:34;;;;;;;26.50;13.10;;;5.00;99.90;;;;;;5085498;28;20035;-82
2021/03/23 04:49:59;;;;;;;32.08;13.23;;;5.40;99.90;;;;;;5105393;27;20116;-83
2021/03/23 04:52:25;;;;;;;25.55;13.45;;;5.20;99.90;;;;;;5100884;28;22457;-82
2021/03/23 04:54:51;;;;;;;31.45;13.95;;;5.00;99.90;;;;;;5096343;28;20051;-82
2021/03/23 04:57:17;;;;;;;29.73;14.30;;;5.10;99.90;;;;;;5101377;28;20042;-84
2021/03/23 04:59:43;;;;;;;30.80;13.27;;;5.00;99.90;;;;;;5102806;28;20031;-82
2021/03/23 05:02:08;;;;;;;34.78;14.55;;;5.00;99.90;;;;;;5098253;27;20032;-83
2021/03/23 05:04:34;;;;;;;27.27;14.40;;;5.00;99.90;;;;;;5101278;28;20050;-83
2021/03/23 05:07:00;;;;;;;35.25;15.13;;;5.50;99.90;;;;;;5084071;28;20402;-81
2021/03/23 05:09:26;;;;;;;26.10;14.05;;;5.00;99.90;;;;;;5092414;28;20450;-83
2021/03/23 05:11:51;;;;;;;31.50;14.90;;;5.20;99.90;;;;;;5106758;28;20486;-83
2021/03/23 05:14:17;;;;;;;28.98;14.90;;;5.00;99.90;;;;;;5088019;28;20498;-82
2021/03/23 05:16:43;;;;;;;38.22;15.93;;;5.10;99.90;;;;;;5105620;27;20142;-81
2021/03/23 05:19:09;;;;;;;29.25;14.38;;;5.10;99.90;;;;;;5109346;28;20512;-82
2021/03/23 05:21:43;;;;;;;26.80;14.88;;;5.20;99.90;;;;;;5099895;28;20151;-82
2021/03/23 05:24:10;;;;;;;24.63;13.63;;;5.10;99.90;;;;;;5082779;28;20661;-82
2021/03/23 05:26:36;;;;;;;29.33;13.80;;;5.10;99.90;;;;;;5112947;28;20055;-81
2021/03/23 05:29:02;;;;;;;27.42;14.05;;;5.10;99.90;;;;;;5091055;28;20085;-82
2021/03/23 05:31:28;;;;;;;28.73;13.10;;;5.30;99.90;;;;;;5107226;28;20089;-81
2021/03/23 05:34:13;;;;;;;29.45;14.23;;;5.10;99.90;;;;;;5094271;28;20043;-82
2021/03/23 05:36:41;;;;;;;26.55;13.80;;;5.20;99.90;;;;;;5077618;28;20040;-83
2021/03/23 05:39:07;;;;;;;31.70;13.20;;;5.10;99.90;;;;;;5077862;28;20055;-82
2021/03/23 05:41:43;;;;;;;27.13;13.93;;;5.00;99.90;;;;;;5090052;28;20039;-81
2021/03/23 05:44:31;;;;;;;26.25;13.40;;;5.00;99.90;;;;;;5094715;28;20043;-82
2021/03/23 05:46:56;;;;;;;31.80;14.38;;;4.90;99.90;;;;;;5063967;28;20474;-82
2021/03/23 05:49:38;;;;;;;28.63;15.13;;;4.90;99.90;;;;;;5112616;28;20032;-82
2021/03/23 05:52:10;;;;;;;41.13;17.77;;;4.90;99.90;;;;;;5083395;28;20044;-82
2021/03/23 05:54:43;;;;;;;36.45;18.65;;;4.90;99.90;;;;;;5069839;28;20051;-82
2021/03/23 05:57:26;;;;;;;39.38;20.02;;;4.80;99.90;;;;;;5094653;28;20047;-82
2021/03/23 05:59:57;;;;;;;40.53;21.27;;;4.80;99.90;;;;;;5093159;28;20050;-82
2021/03/23 06:02:34;;;;;;;50.45;23.10;;;5.10;99.90;;;;;;5067373;28;20043;-82
2021/03/23 06:05:19;;;;;;;53.83;24.73;;;4.80;99.90;;;;;;5082740;28;20031;-77
2021/03/23 06:07:45;;;;;;;72.63;27.10;;;4.80;99.90;;;;;;5092344;28;20036;-80
2021/03/23 06:10:16;;;;;;;80.18;33.25;;;5.40;99.90;;;;;;5094769;28;20138;-80
2021/03/23 06:13:08;;;;;;;90.25;32.17;;;4.90;99.90;;;;;;5112974;28;20042;-79
2021/03/23 06:15:48;;;;;;;87.22;35.00;;;4.90;99.90;;;;;;5114530;28;20055;-81
2021/03/23 06:18:59;;;;;;;87.68;34.13;;;4.90;99.90;;;;;;5089939;28;20090;-81
2021/03/23 06:21:34;;;;;;;94.30;35.22;;;4.90;99.90;;;;;;5087915;28;20047;-79
2021/03/23 06:24:25;;;;;;;113.28;36.33;;;4.90;99.90;;;;;;5090307;28;20052;-78
2021/03/23 06:26:54;;;;;;;97.28;35.80;;;5.00;99.90;;;;;;5073064;28;20139;-77
2021/03/23 06:29:55;;;;;;;95.45;36.22;;;5.00;99.90;;;;;;5088391;28;20113;-77
2021/03/23 06:32:26;;;;;;;94.88;36.40;;;5.00;99.90;;;;;;5090404;28;20123;-78
2021/03/23 06:34:55;;;;;;;112.07;39.05;;;5.00;99.90;;;;;;5089972;28;20075;-79
2021/03/23 06:37:29;;;;;;;114.63;38.00;;;5.00;99.90;;;;;;5072672;28;20079;-79
2021/03/23 06:39:55;;;;;;;110.93;39.83;;;5.00;99.90;;;;;;5089447;28;20031;-80
2021/03/23 06:42:40;;;;;;;111.60;39.60;;;5.10;99.90;;;;;;5088493;28;20298;-80
2021/03/23 06:45:29;;;;;;;109.30;40.70;;;5.20;99.90;;;;;;5086475;28;20059;-80
2021/03/23 06:47:58;;;;;;;101.35;38.72;;;5.10;99.90;;;;;;5079644;28;20580;-81
2021/03/23 06:50:35;;;;;;;109.28;40.80;;;5.10;99.90;;;;;;5056065;28;20081;-80
2021/03/23 06:53:13;;;;;;;107.55;38.78;;;5.20;99.90;;;;;;5071753;28;20036;-80
2021/03/23 06:55:42;;;;;;;114.38;40.80;;;5.20;99.90;;;;;;5056482;28;20044;-79
2021/03/23 06:58:31;;;;;;;105.57;40.75;;;5.20;99.90;;;;;;5084465;28;20119;-79
2021/03/23 07:01:16;;;;;;;111.03;39.92;;;5.30;99.90;;;;;;5110512;28;20044;-80
2021/03/23 07:03:44;;;;;;;108.43;41.53;;;5.30;99.90;;;;;;5090216;28;20038;-80
2021/03/23 07:06:28;;;;;;;109.35;41.30;;;5.40;99.90;;;;;;5106936;28;20047;-80
2021/03/23 07:09:19;;;;;;;105.90;41.27;;;5.40;99.90;;;;;;5108230;28;20395;-80
2021/03/23 07:12:05;;;;;;;112.55;42.42;;;5.40;99.90;;;;;;5094067;28;20043;-80
2021/03/23 07:14:43;;;;;;;97.13;42.28;;;5.50;99.90;;;;;;5107603;28;20051;-79
2021/03/23 07:17:09;;;;;;;104.50;41.83;;;5.50;99.90;;;;;;5110423;28;20035;-79
2021/03/23 07:19:58;;;;;;;96.10;41.08;;;5.60;99.90;;;;;;5101376;28;20436;-79
2021/03/23 07:22:34;;;;;;;102.43;40.60;;;5.60;99.90;;;;;;5093572;28;20059;-79
2021/03/23 07:25:03;;;;;;;99.10;41.28;;;5.70;99.90;;;;;;5108025;28;20057;-79
2021/03/23 07:27:29;;;;;;;91.55;41.00;;;5.70;99.90;;;;;;5091542;28;20057;-79
2021/03/23 07:30:29;;;;;;;101.85;41.25;;;5.80;99.90;;;;;;5100477;28;20040;-80
2021/03/23 07:33:07;;;;;;;90.45;40.05;;;5.80;99.90;;;;;;5112047;28;20198;-81
2021/03/23 07:35:37;;;;;;;90.65;38.22;;;5.90;99.90;;;;;;5074918;28;20093;-80
2021/03/23 07:38:20;;;;;;;99.35;38.33;;;5.90;99.90;;;;;;5105995;28;20051;-81
2021/03/23 07:40:49;;;;;;;94.28;39.80;;;5.90;99.90;;;;;;5085545;28;20035;-80
2021/03/23 07:43:15;;;;;;;100.57;38.63;;;6.00;99.90;;;;;;5082776;28;20127;-79
2021/03/23 07:45:57;;;;;;;89.20;39.92;;;6.00;99.90;;;;;;5108301;28;20146;-79
2021/03/23 07:48:44;;;;;;;93.88;40.15;;;6.10;99.90;;;;;;5105453;28;20034;-79
2021/03/23 07:51:25;;;;;;;86.13;39.13;;;6.10;99.90;;;;;;5103385;28;20036;-80
2021/03/23 07:53:54;;;;;;;86.25;39.55;;;6.20;99.90;;;;;;5072280;28;20470;-80
2021/03/23 07:56:47;;;;;;;81.82;38.40;;;6.30;99.90;;;;;;5102394;28;20111;-79
2021/03/23 07:59:44;;;;;;;97.50;38.80;;;6.40;99.90;;;;;;5109566;28;20287;-80
2021/03/23 08:02:46;;;;;;;80.65;37.33;;;6.30;99.90;;;;;;5102310;28;20052;-79
2021/03/23 08:05:31;;;;;;;77.40;37.67;;;6.40;99.90;;;;;;5106815;28;20047;-78
2021/03/23 08:08:45;;;;;;;74.25;35.67;;;6.50;99.90;;;;;;5108089;28;20024;-80
2021/03/23 08:11:14;;;;;;;68.40;35.53;;;6.60;99.90;;;;;;5092794;28;20043;-80
2021/03/23 08:13:54;;;;;;;62.45;35.05;;;6.60;99.90;;;;;;5112043;28;20036;-79
2021/03/23 08:16:33;;;;;;;61.42;32.55;;;6.70;99.90;;;;;;5102891;28;20098;-79
2021/03/23 08:19:12;;;;;;;61.08;31.85;;;6.70;99.90;;;;;;5081532;28;20040;-78
2021/03/23 08:22:03;;;;;;;58.67;32.50;;;6.80;99.90;;;;;;5096184;28;20038;-79
2021/03/23 08:24:42;;;;;;;53.45;30.67;;;6.80;99.90;;;;;;5113158;28;20629;-79
2021/03/23 08:27:17;;;;;;;55.05;31.35;;;6.80;99.90;;;;;;5111973;28;20391;-79
2021/03/23 08:30:05;;;;;;;56.90;33.13;;;6.80;99.90;;;;;;5110968;28;20344;-79
2021/03/23 08:32:53;;;;;;;59.15;32.35;;;6.90;99.90;;;;;;5114181;28;20622;-79
2021/03/23 08:35:35;;;;;;;50.20;29.73;;;7.00;99.90;;;;;;5103071;28;20181;-79
2021/03/23 08:38:41;;;;;;;53.53;29.80;;;7.00;99.90;;;;;;5099110;28;20063;-79
2021/03/23 08:41:32;;;;;;;52.35;29.20;;;7.00;99.90;;;;;;4991870;28;20153;-79
2021/03/23 08:43:58;;;;;;;47.60;27.90;;;7.00;99.90;;;;;;5011313;28;20126;-79
2021/03/23 08:46:31;;;;;;;45.95;28.95;;;7.10;99.90;;;;;;5012899;28;20124;-79
2021/03/23 08:49:04;;;;;;;48.15;28.33;;;7.10;99.90;;;;;;4987922;28;20050;-79
2021/03/23 08:51:33;;;;;;;46.78;28.25;;;7.00;99.90;;;;;;4993385;28;20049;-79
2021/03/23 08:54:07;;;;;;;48.70;29.27;;;7.10;99.90;;;;;;4994800;28;20053;-79
2021/03/23 08:56:41;;;;;;;50.28;28.95;;;7.10;99.90;;;;;;4972148;28;20062;-79
2021/03/23 08:59:35;;;;;;;46.33;27.73;;;7.20;99.90;;;;;;4978784;28;20050;-79
2021/03/23 09:02:27;;;;;;;44.75;26.52;;;7.20;99.90;;;;;;4986392;28;20041;-79
2021/03/23 09:04:56;;;;;;;42.25;26.25;;;7.30;99.90;;;;;;4934054;29;20118;-80
2021/03/23 09:07:28;;;;;;;41.15;24.45;;;7.20;99.90;;;;;;4928486;29;20119;-80
2021/03/23 09:09:54;;;;;;;38.65;24.55;;;7.30;99.90;;;;;;4915984;29;20052;-79
2021/03/23 09:12:44;;;;;;;35.72;23.40;;;7.30;99.90;;;;;;4912439;29;20492;-79
2021/03/23 09:15:10;;;;;;;38.15;22.65;;;7.40;99.90;;;;;;4900449;29;20388;-80
2021/03/23 09:18:00;;;;;;;36.72;21.27;;;7.30;99.90;;;;;;4977055;28;20060;-80
2021/03/23 09:20:36;;;;;;;37.47;23.50;;;7.30;99.90;;;;;;5011870;28;20050;-80
2021/03/23 09:23:23;;;;;;;36.78;22.17;;;7.30;99.90;;;;;;4993235;28;20050;-79
2021/03/23 09:25:56;;;;;;;34.75;21.55;;;7.50;99.90;;;;;;5008208;28;20066;-78
2021/03/23 09:28:50;;;;;;;33.15;21.77;;;7.50;99.90;;;;;;4976365;28;20058;-80
2021/03/23 09:31:48;;;;;;;38.90;22.80;;;7.60;99.90;;;;;;4987545;28;20046;-80
2021/03/23 09:34:52;;;;;;;36.47;23.58;;;7.70;99.90;;;;;;4984893;28;20050;-78
2021/03/23 09:37:35;;;;;;;38.13;22.95;;;7.80;99.90;;;;;;4988066;28;20466;-78
2021/03/23 09:40:21;;;;;;;37.83;24.08;;;7.80;99.90;;;;;;4979748;28;20035;-79
2021/03/23 09:43:04;;;;;;;36.95;23.38;;;8.10;99.90;;;;;;5067354;28;20071;-78
2021/03/23 09:45:37;;;;;;;36.80;24.77;;;8.10;99.90;;;;;;5081439;28;20400;-79
2021/03/23 09:48:12;;;;;;;34.67;23.02;;;8.20;99.90;;;;;;5080088;28;20053;-78
2021/03/23 09:50:50;;;;;;;38.38;22.35;;;8.20;99.90;;;;;;5053680;28;20411;-80
2021/03/23 09:53:28;;;;;;;30.08;20.85;;;8.10;99.90;;;;;;5067898;28;20044;-80
2021/03/23 09:56:13;;;;;;;38.05;24.75;;;8.10;99.90;;;;;;5058826;28;20483;-80
2021/03/23 09:58:41;;;;;;;34.40;21.73;;;8.20;99.90;;;;;;5072299;28;20551;-80
2021/03/23 10:01:15;;;;;;;37.08;24.00;;;8.40;99.90;;;;;;5073516;28;20068;-80
2021/03/23 10:03:42;;;;;;;38.30;23.47;;;8.50;99.90;;;;;;5073038;28;20060;-79
2021/03/23 10:06:20;;;;;;;35.38;23.08;;;8.70;99.90;;;;;;5068630;28;20041;-80
2021/03/23 10:09:02;;;;;;;37.78;23.20;;;8.70;99.90;;;;;;5080932;28;20033;-80
2021/03/23 10:11:41;;;;;;;36.28;24.08;;;8.90;99.90;;;;;;5066801;28;20078;-80
2021/03/23 10:14:12;;;;;;;30.48;22.63;;;9.10;99.90;;;;;;5070982;28;20388;-80
2021/03/23 10:16:44;;;;;;;31.73;22.40;;;9.20;99.90;;;;;;5071484;28;20048;-80
2021/03/23 10:19:18;;;;;;;37.53;23.90;;;9.20;99.90;;;;;;5086236;28;20053;-79
2021/03/23 10:21:48;;;;;;;31.88;22.60;;;9.00;99.90;;;;;;5068945;28;20033;-80
2021/03/23 10:24:17;;;;;;;33.72;23.10;;;9.00;99.90;;;;;;5067036;28;20510;-80
2021/03/23 10:26:46;;;;;;;32.65;22.48;;;9.10;99.90;;;;;;5089144;28;20052;-80
2021/03/23 10:29:26;;;;;;;34.83;25.10;;;9.00;99.90;;;;;;5076572;28;20113;-80
2021/03/23 10:31:57;;;;;;;31.40;20.75;;;9.10;99.90;;;;;;5092329;28;20138;-80
2021/03/23 10:34:31;;;;;;;35.15;23.17;;;9.00;99.90;;;;;;5087650;28;20097;-80
2021/03/23 10:37:08;;;;;;;36.05;23.20;;;9.10;99.90;;;;;;5076163;28;20124;-80
2021/03/23 10:39:43;;;;;;;34.72;23.67;;;9.00;99.90;;;;;;5087906;28;20059;-80
2021/03/23 10:42:24;;;;;;;35.58;24.67;;;9.20;99.90;;;;;;5076608;28;20033;-80
2021/03/23 10:45:08;;;;;;;36.17;24.58;;;9.40;99.90;;;;;;5082978;28;20044;-80
2021/03/23 10:47:39;;;;;;;35.88;24.75;;;9.50;99.90;;;;;;5089569;28;20055;-80
2021/03/23 10:50:23;;;;;;;35.13;24.45;;;9.70;99.90;;;;;;5091820;28;20588;-80
2021/03/23 10:52:51;;;;;;;35.50;25.38;;;10.00;99.90;;;;;;5081290;28;20032;-80
2021/03/23 10:55:33;;;;;;;32.47;23.20;;;10.30;99.90;;;;;;5073038;28;20097;-80
2021/03/23 10:58:16;;;;;;;34.30;24.27;;;10.50;99.90;;;;;;5084491;28;20089;-81
2021/03/23 11:00:43;;;;;;;33.55;22.88;;;10.60;99.90;;;;;;5083914;28;20459;-79
2021/03/23 11:03:31;;;;;;;33.33;23.50;;;10.40;99.90;;;;;;5068213;28;20479;-80
2021/03/23 11:05:58;;;;;;;31.67;23.67;;;10.30;99.90;;;;;;5085289;28;20059;-80
2021/03/23 11:08:26;;;;;;;31.38;22.67;;;10.20;99.90;;;;;;5090593;28;20505;-81
2021/03/23 11:10:56;;;;;;;33.38;23.45;;;10.00;99.90;;;;;;5075510;28;20046;-79
2021/03/23 11:13:22;;;;;;;30.90;23.80;;;9.90;99.90;;;;;;5091792;28;20059;-80
2021/03/23 11:15:48;;;;;;;30.85;23.38;;;9.90;99.90;;;;;;5092178;28;20470;-80
2021/03/23 11:18:28;;;;;;;34.47;24.15;;;9.90;99.90;;;;;;5091736;28;20046;-80
2021/03/23 11:20:54;;;;;;;30.45;21.48;;;10.00;99.90;;;;;;5107469;28;20063;-80
2021/03/23 11:23:43;;;;;;;32.78;23.80;;;10.10;99.90;;;;;;5090237;28;20391;-80
2021/03/23 11:26:13;;;;;;;33.63;24.05;;;10.00;99.90;;;;;;5090594;28;20059;-80
2021/03/23 11:28:40;;;;;;;39.33;25.98;;;10.10;99.90;;;;;;5090853;28;20117;-80
2021/03/23 11:31:08;;;;;;;31.15;24.10;;;10.10;99.90;;;;;;5072603;28;20036;-80
2021/03/23 11:33:34;;;;;;;32.63;25.92;;;10.20;99.90;;;;;;5068451;28;20132;-80
2021/03/23 11:36:01;;;;;;;33.53;25.27;;;10.20;99.90;;;;;;5071871;28;20045;-80
2021/03/23 11:38:28;;;;;;;31.50;24.25;;;10.30;99.90;;;;;;5086813;28;20076;-80
2021/03/23 11:40:56;;;;;;;30.48;22.77;;;10.20;99.90;;;;;;5070636;28;20040;-80
2021/03/23 11:43:46;;;;;;;37.55;26.98;;;10.30;99.90;;;;;;5069244;28;20052;-81
2021/03/23 11:46:18;;;;;;;40.42;26.77;;;10.40;99.90;;;;;;5087592;28;20840;-81
2021/03/23 11:48:47;;;;;;;39.35;25.75;;;10.80;99.90;;;;;;5087001;28;20063;-80
2021/03/23 11:51:13;;;;;;;35.97;26.38;;;10.90;99.90;;;;;;5071948;28;20064;-80
2021/03/23 11:53:39;;;;;;;38.50;26.23;;;11.30;99.90;;;;;;5071283;28;20036;-81
2021/03/23 11:56:05;;;;;;;40.10;26.52;;;11.30;99.90;;;;;;5069756;28;20417;-81
2021/03/23 11:58:31;;;;;;;35.42;24.40;;;11.50;99.90;;;;;;5087345;28;20045;-80
2021/03/23 12:00:57;;;;;;;36.22;26.17;;;11.90;99.90;;;;;;5073804;28;20476;-81
2021/03/23 12:03:23;;;;;;;38.00;25.95;;;11.80;99.90;;;;;;5073755;28;20052;-81
2021/03/23 12:05:49;;;;;;;37.33;25.48;;;11.60;99.80;;;;;;5074867;28;20044;-80
2021/03/23 12:08:27;;;;;;;38.90;25.38;;;11.40;99.90;;;;;;5073587;28;20036;-80
2021/03/23 12:11:12;;;;;;;37.65;25.42;;;11.20;99.90;;;;;;5074177;28;20387;-80
2021/03/23 12:14:16;;;;;;;37.58;25.67;;;11.20;99.70;;;;;;5075598;28;20559;-80
2021/03/23 12:17:13;;;;;;;39.03;25.60;;;11.10;99.90;;;;;;5074331;28;20535;-79
2021/03/23 12:19:47;;;;;;;36.30;24.98;;;11.00;99.90;;;;;;5053292;28;20059;-80
2021/03/23 12:22:12;;;;;;;41.03;25.45;;;11.00;99.90;;;;;;5052748;28;20071;-80
2021/03/23 12:24:40;;;;;;;36.47;24.67;;;11.00;99.90;;;;;;5053418;28;20487;-80
2021/03/23 12:27:07;;;;;;;38.40;25.10;;;11.30;99.90;;;;;;5097694;28;20558;-79
2021/03/23 12:29:33;;;;;;;36.75;25.33;;;11.30;99.90;;;;;;5062135;28;20086;-79
2021/03/23 12:31:59;;;;;;;39.75;25.10;;;11.40;99.90;;;;;;5078499;28;20052;-81
2021/03/23 12:34:28;;;;;;;34.05;24.25;;;11.50;99.90;;;;;;5098397;28;20081;-82
2021/03/23 12:36:54;;;;;;;35.08;25.65;;;11.70;99.80;;;;;;5075054;28;20067;-81
2021/03/23 12:39:22;;;;;;;38.30;25.77;;;11.50;99.90;;;;;;5086384;28;20036;-81
2021/03/23 12:41:48;;;;;;;42.72;26.75;;;11.40;99.90;;;;;;5089325;28;20045;-81
2021/03/23 12:44:16;;;;;;;36.97;26.75;;;11.50;99.90;;;;;;5075436;28;20458;-81
2021/03/23 12:46:43;;;;;;;42.25;27.85;;;11.80;99.90;;;;;;5070797;28;20575;-81
2021/03/23 12:49:09;;;;;;;36.88;26.80;;;12.10;99.70;;;;;;5058285;28;20056;-80
2021/03/23 12:51:44;;;;;;;39.67;27.13;;;12.10;99.70;;;;;;5098614;28;20506;-81
2021/03/23 12:54:16;;;;;;;;;;;12.40;99.40;;;;;;5044360;28;20044;-81
2021/03/23 12:56:43;;;;;;;36.45;26.65;;;12.80;98.60;;;;;;5072761;28;19956;-83
2021/03/23 12:59:19;;;;;;;38.75;27.20;;;12.90;98.60;;;;;;5083602;28;20493;-82
2021/03/23 13:04:55;;;;;;;41.05;27.02;;;13.00;97.50;;;;;;5081412;28;20367;-84
2021/03/23 13:07:23;;;;;;;35.28;25.98;;;13.00;97.80;;;;;;5093278;28;20043;-83
2021/03/23 13:09:51;;;;;;;37.75;26.70;;;13.00;96.90;;;;;;5079224;28;20041;-83
2021/03/23 13:12:19;;;;;;;38.35;27.38;;;12.70;97.60;;;;;;5084726;28;20395;-84